createdAt,value
2023-03-19T00:00:32.244Z,2.92
2023-03-19T00:03:00.442Z,2.25
2023-03-19T00:05:27.852Z,6.18
2023-03-19T00:07:55.076Z,2.95
2023-03-19T00:10:22.494Z,3.35
2023-03-19T00:12:50.033Z,3.08
2023-03-19T00:15:23.558Z,2.42
2023-03-19T00:17:51.655Z,2.65
2023-03-19T00:20:20.370Z,2.17
2023-03-19T00:22:49.101Z,2.78
2023-03-19T00:25:16.603Z,3.67
2023-03-19T00:27:44.613Z,4.00
2023-03-19T00:30:12.332Z,6.63
2023-03-19T00:32:40.999Z,3.67
2023-03-19T00:35:09.157Z,2.90
2023-03-19T00:37:37.438Z,2.72
2023-03-19T00:40:08.063Z,3.72
2023-03-19T00:42:35.623Z,6.35
2023-03-19T00:45:03.250Z,4.72
2023-03-19T00:47:30.843Z,7.65
2023-03-19T00:49:58.374Z,5.07
2023-03-19T00:52:27.130Z,4.55
2023-03-19T00:54:54.442Z,5.18
2023-03-19T00:57:22.281Z,4.90
2023-03-19T00:59:49.760Z,4.55
2023-03-19T01:02:17.301Z,4.80
2023-03-19T01:04:45.362Z,4.82
2023-03-19T01:07:12.839Z,6.60
2023-03-19T01:09:41.174Z,6.32
2023-03-19T01:12:08.750Z,7.35
2023-03-19T01:14:36.351Z,7.18
2023-03-19T01:17:03.630Z,10.30
2023-03-19T01:19:31.025Z,7.43
2023-03-19T01:21:58.316Z,4.40
2023-03-19T01:24:29.866Z,9.73
2023-03-19T01:26:57.111Z,3.53
2023-03-19T01:29:24.638Z,5.22
2023-03-19T01:31:53.548Z,5.80
2023-03-19T01:34:21.075Z,5.60
2023-03-19T01:36:49.113Z,7.15
2023-03-19T01:39:16.340Z,9.38
2023-03-19T01:41:43.870Z,4.80
2023-03-19T01:44:28.464Z,6.32
2023-03-19T01:46:55.966Z,4.38
2023-03-19T01:49:23.856Z,4.47
2023-03-19T01:51:51.422Z,4.35
2023-03-19T01:54:21.962Z,6.18
2023-03-19T01:56:52.025Z,3.47
2023-03-19T01:59:22.948Z,11.07
2023-03-19T02:02:00.664Z,8.60
2023-03-19T02:04:28.102Z,7.30
2023-03-19T02:06:55.958Z,13.98
2023-03-19T02:09:27.853Z,8.95
2023-03-19T02:11:55.253Z,8.55
2023-03-19T02:14:23.050Z,7.47
2023-03-19T02:16:51.594Z,8.93
2023-03-19T02:19:34.056Z,9.80
2023-03-19T02:22:04.388Z,6.63
2023-03-19T02:24:57.951Z,7.57
2023-03-19T02:27:25.291Z,6.40
2023-03-19T02:29:52.583Z,5.00
2023-03-19T02:32:19.795Z,4.80
2023-03-19T02:34:50.515Z,6.40
2023-03-19T02:37:35.875Z,5.32
2023-03-19T02:40:07.957Z,8.75
2023-03-19T02:42:36.440Z,5.47
2023-03-19T02:45:04.407Z,10.13
2023-03-19T02:47:31.895Z,8.70
2023-03-19T02:49:59.874Z,8.55
2023-03-19T02:52:27.238Z,6.63
2023-03-19T02:54:54.503Z,8.07
2023-03-19T02:57:21.768Z,7.82
2023-03-19T02:59:53.459Z,8.60
2023-03-19T03:02:20.719Z,9.10
2023-03-19T03:04:48.731Z,5.80
2023-03-19T03:07:22.079Z,7.78
2023-03-19T03:09:49.466Z,10.63
2023-03-19T03:12:16.748Z,7.97
2023-03-19T03:14:45.896Z,14.45
2023-03-19T03:17:14.421Z,9.30
2023-03-19T03:19:42.060Z,12.27
2023-03-19T03:22:09.505Z,12.23
2023-03-19T03:24:36.983Z,10.88
2023-03-19T03:27:04.353Z,10.15
2023-03-19T03:29:32.428Z,8.77
2023-03-19T03:31:59.887Z,9.82
2023-03-19T03:34:27.623Z,15.27
2023-03-19T03:36:55.205Z,10.15
2023-03-19T03:39:23.110Z,7.43
2023-03-19T03:41:50.396Z,10.73
2023-03-19T03:44:18.242Z,7.90
2023-03-19T03:46:49.393Z,4.57
2023-03-19T03:49:16.920Z,5.55
2023-03-19T03:51:44.155Z,8.20
2023-03-19T03:54:12.421Z,7.07
2023-03-19T03:56:39.920Z,6.38
2023-03-19T03:59:07.705Z,7.90
2023-03-19T04:01:35.071Z,5.78
2023-03-19T04:04:02.777Z,6.22
2023-03-19T04:06:30.550Z,6.35
2023-03-19T04:08:57.962Z,6.55
2023-03-19T04:11:25.159Z,5.97
2023-03-19T04:13:55.206Z,6.43
2023-03-19T04:16:22.504Z,6.80
2023-03-19T04:18:49.795Z,10.70
2023-03-19T04:21:22.552Z,7.70
2023-03-19T04:23:50.358Z,9.77
2023-03-19T04:26:17.863Z,8.48
2023-03-19T04:28:50.847Z,5.28
2023-03-19T04:31:18.400Z,12.30
2023-03-19T04:33:45.774Z,12.63
2023-03-19T04:36:13.357Z,14.70
2023-03-19T04:38:41.618Z,15.40
2023-03-19T04:41:11.401Z,12.00
2023-03-19T04:43:38.688Z,8.52
2023-03-19T04:46:08.118Z,6.28
2023-03-19T04:48:37.810Z,7.78
2023-03-19T04:51:05.347Z,8.65
2023-03-19T04:53:36.250Z,9.77
2023-03-19T04:56:04.493Z,7.68
2023-03-19T04:58:31.768Z,6.45
2023-03-19T05:01:00.027Z,3.20
2023-03-19T05:03:27.717Z,10.05
2023-03-19T05:05:57.237Z,9.23
2023-03-19T05:08:24.791Z,7.47
2023-03-19T05:10:52.001Z,7.97
2023-03-19T05:13:21.636Z,9.23
2023-03-19T05:15:53.176Z,5.47
2023-03-19T05:18:20.492Z,8.13
2023-03-19T05:20:51.640Z,10.82
2023-03-19T05:23:18.980Z,10.93
2023-03-19T05:25:46.481Z,8.88
2023-03-19T05:28:14.109Z,8.63
2023-03-19T05:30:41.469Z,11.27
2023-03-19T05:33:13.129Z,12.77
2023-03-19T05:35:40.635Z,11.60
2023-03-19T05:38:08.326Z,13.23
2023-03-19T05:40:36.296Z,11.77
2023-03-19T05:43:03.827Z,9.35
2023-03-19T05:45:31.076Z,9.07
2023-03-19T05:47:58.857Z,10.70
2023-03-19T05:50:26.262Z,9.45
2023-03-19T05:52:53.651Z,8.02
2023-03-19T05:55:21.119Z,10.98
2023-03-19T05:57:48.357Z,16.13
2023-03-19T06:00:16.402Z,10.82
2023-03-19T06:02:44.250Z,11.18
2023-03-19T06:05:12.743Z,8.73
2023-03-19T06:07:41.028Z,9.73
2023-03-19T06:10:09.355Z,10.35
2023-03-19T06:12:37.051Z,10.65
2023-03-19T06:15:04.723Z,12.00
2023-03-19T06:17:37.194Z,13.25
2023-03-19T06:20:04.744Z,10.73
2023-03-19T06:22:32.313Z,14.30
2023-03-19T06:24:59.618Z,11.02
2023-03-19T06:27:27.166Z,10.55
2023-03-19T06:29:55.459Z,9.18
2023-03-19T06:32:25.769Z,10.13
2023-03-19T06:34:53.384Z,11.23
2023-03-19T06:37:20.689Z,12.93
2023-03-19T06:39:49.475Z,8.98
2023-03-19T06:42:17.133Z,13.90
2023-03-19T06:44:46.501Z,14.25
2023-03-19T06:47:14.355Z,12.02
2023-03-19T06:49:41.729Z,8.93
2023-03-19T06:52:10.375Z,13.73
2023-03-19T06:54:38.518Z,16.60
2023-03-19T06:57:06.037Z,7.72
2023-03-19T06:59:36.453Z,15.27
2023-03-19T07:02:03.817Z,11.02
2023-03-19T07:04:31.213Z,19.48
2023-03-19T07:06:58.559Z,13.55
2023-03-19T07:09:27.308Z,17.90
2023-03-19T07:11:58.046Z,10.70
2023-03-19T07:14:26.282Z,19.48
2023-03-19T07:16:53.505Z,10.65
2023-03-19T07:19:25.727Z,12.05
2023-03-19T07:21:52.976Z,6.97
2023-03-19T07:24:20.436Z,10.13
2023-03-19T07:26:48.158Z,13.07
2023-03-19T07:29:17.817Z,14.07
2023-03-19T07:31:45.195Z,14.68
2023-03-19T07:34:14.870Z,17.10
2023-03-19T07:36:42.207Z,11.55
2023-03-19T07:39:10.040Z,11.93
2023-03-19T07:41:37.355Z,15.50
2023-03-19T07:44:04.663Z,13.48
2023-03-19T07:46:34.133Z,18.27
2023-03-19T07:49:01.454Z,14.20
2023-03-19T07:51:28.825Z,17.05
2023-03-19T07:53:57.967Z,8.73
2023-03-19T07:56:25.205Z,12.60
2023-03-19T07:58:52.855Z,14.55
2023-03-19T08:01:20.133Z,9.57
2023-03-19T08:03:48.732Z,13.82
2023-03-19T08:06:15.992Z,11.63
2023-03-19T08:08:46.827Z,20.77
2023-03-19T08:11:14.166Z,10.15
2023-03-19T08:13:42.876Z,10.75
2023-03-19T08:16:13.588Z,17.60
2023-03-19T08:18:42.481Z,10.73
2023-03-19T08:21:09.728Z,8.20
2023-03-19T08:23:39.179Z,5.85
2023-03-19T08:26:06.491Z,15.65
2023-03-19T08:28:33.978Z,6.97
2023-03-19T08:31:11.664Z,8.65
2023-03-19T08:33:39.078Z,8.57
2023-03-19T08:36:13.300Z,6.07
2023-03-19T08:38:42.690Z,10.65
2023-03-19T08:41:12.394Z,7.35
2023-03-19T08:43:40.937Z,6.75
2023-03-19T08:46:08.201Z,18.13
2023-03-19T08:48:35.687Z,11.02
2023-03-19T08:51:05.675Z,11.15
2023-03-19T08:53:33.590Z,6.15
2023-03-19T08:56:02.780Z,16.33
2023-03-19T08:58:32.748Z,7.28
2023-03-19T09:01:03.297Z,8.85
2023-03-19T09:03:31.225Z,14.27
2023-03-19T09:06:05.256Z,12.27
2023-03-19T09:08:52.369Z,9.73
2023-03-19T09:11:23.362Z,7.63
2023-03-19T09:13:51.079Z,10.85
2023-03-19T09:16:18.697Z,12.98
2023-03-19T09:18:46.842Z,7.13
2023-03-19T09:21:14.373Z,10.77
2023-03-19T09:23:41.558Z,12.70
2023-03-19T09:26:12.152Z,16.80
2023-03-19T09:28:41.146Z,11.55
2023-03-19T09:31:11.579Z,15.75
2023-03-19T09:33:39.137Z,9.57
2023-03-19T09:36:07.011Z,12.98
2023-03-19T09:38:35.495Z,9.93
2023-03-19T09:41:14.980Z,12.65
2023-03-19T09:44:06.138Z,6.87
2023-03-19T09:46:38.936Z,8.90
2023-03-19T09:49:18.633Z,11.60
2023-03-19T09:51:54.943Z,9.38
2023-03-19T09:54:31.182Z,13.65
2023-03-19T09:56:59.451Z,7.97
2023-03-19T09:59:27.564Z,8.15
2023-03-19T10:02:22.057Z,7.43
2023-03-19T10:04:59.112Z,9.07
2023-03-19T10:07:47.683Z,5.85
2023-03-19T10:10:27.524Z,7.80
2023-03-19T10:13:24.160Z,5.60
2023-03-19T10:15:54.360Z,8.68
2023-03-19T10:18:32.836Z,4.88
2023-03-19T10:21:04.403Z,7.85
2023-03-19T10:23:37.821Z,6.83
2023-03-19T10:26:06.176Z,10.35
2023-03-19T10:28:33.400Z,13.20
2023-03-19T10:31:22.413Z,14.52
2023-03-19T10:34:00.248Z,7.70
2023-03-19T10:36:30.744Z,11.88
2023-03-19T10:38:58.334Z,18.00
2023-03-19T10:41:38.535Z,5.63
2023-03-19T10:44:07.426Z,7.47
2023-03-19T10:46:39.832Z,6.07
2023-03-19T10:49:13.715Z,7.97
2023-03-19T10:51:44.322Z,10.70
2023-03-19T10:54:27.157Z,9.75
2023-03-19T10:57:01.295Z,6.43
2023-03-19T10:59:36.560Z,14.38
2023-03-19T11:02:16.195Z,11.82
2023-03-19T11:04:43.977Z,8.68
2023-03-19T11:07:18.164Z,6.22
2023-03-19T11:09:49.545Z,9.68
2023-03-19T11:12:32.022Z,12.57
2023-03-19T11:14:59.457Z,14.45
2023-03-19T11:17:41.762Z,14.13
2023-03-19T11:20:37.721Z,11.80
2023-03-19T11:23:14.233Z,8.32
2023-03-19T11:25:46.994Z,6.07
2023-03-19T11:28:16.251Z,14.75
2023-03-19T11:31:21.701Z,16.98
2023-03-19T11:33:48.956Z,7.18
2023-03-19T11:36:31.740Z,11.80
2023-03-19T11:39:11.172Z,9.07
2023-03-19T11:42:03.994Z,9.55
2023-03-19T11:44:49.979Z,7.65
2023-03-19T11:47:37.777Z,10.30
2023-03-19T11:50:27.903Z,6.05
2023-03-19T11:53:31.922Z,12.52
2023-03-19T11:56:09.315Z,9.20
2023-03-19T11:58:41.137Z,10.10
2023-03-19T12:01:47.510Z,9.65
2023-03-19T12:04:38.011Z,8.68
2023-03-19T12:07:11.238Z,10.20
2023-03-19T12:10:00.577Z,10.73
2023-03-19T12:12:55.821Z,11.88
2023-03-19T12:15:27.809Z,10.10
2023-03-19T12:18:28.524Z,7.28
2023-03-19T12:21:14.356Z,7.72
2023-03-19T12:23:44.245Z,9.63
2023-03-19T12:26:19.733Z,11.55
2023-03-19T12:29:04.611Z,9.18
2023-03-19T12:32:07.509Z,10.88
2023-03-19T12:34:40.771Z,11.38
2023-03-19T12:37:17.277Z,16.95
2023-03-19T12:39:52.679Z,11.05
2023-03-19T12:42:19.938Z,13.48
2023-03-19T12:44:51.171Z,12.73
2023-03-19T12:47:23.652Z,8.40
2023-03-19T12:50:03.994Z,14.50
2023-03-19T12:52:38.501Z,12.18
2023-03-19T12:57:51.267Z,10.15
2023-03-19T13:00:24.530Z,7.85
2023-03-19T13:02:56.288Z,9.43
2023-03-19T13:05:36.319Z,12.93
2023-03-19T13:08:31.485Z,13.10
2023-03-19T13:11:00.610Z,22.67
2023-03-19T13:13:56.031Z,13.02
2023-03-19T13:16:50.844Z,10.70
2023-03-19T13:19:31.770Z,10.50
2023-03-19T13:22:00.870Z,13.52
2023-03-19T13:24:30.287Z,19.95
2023-03-19T13:26:59.247Z,10.65
2023-03-19T13:29:39.346Z,10.32
2023-03-19T13:32:09.087Z,9.82
2023-03-19T13:34:37.290Z,17.40
2023-03-19T13:37:16.644Z,21.00
2023-03-19T13:39:44.135Z,15.38
2023-03-19T13:42:11.291Z,19.80
2023-03-19T13:44:49.275Z,15.05
2023-03-19T13:47:37.564Z,12.48
2023-03-19T13:50:19.886Z,14.98
2023-03-19T13:52:52.514Z,15.85
2023-03-19T13:55:26.009Z,10.50
2023-03-19T13:58:12.352Z,9.90
2023-03-19T14:00:43.077Z,9.82
2023-03-19T14:03:27.699Z,25.75
2023-03-19T14:05:56.326Z,10.05
2023-03-19T14:08:43.696Z,14.05
2023-03-19T14:11:10.997Z,10.50
2023-03-19T14:13:40.359Z,15.07
2023-03-19T14:16:18.110Z,13.48
2023-03-19T14:18:45.532Z,17.60
2023-03-19T14:21:50.920Z,9.48
2023-03-19T14:24:55.356Z,9.75
2023-03-19T14:27:18.426Z,10.00
2023-03-19T14:29:46.170Z,18.70
2023-03-19T14:32:18.069Z,13.85
2023-03-19T14:34:49.648Z,10.20
2023-03-19T14:37:34.636Z,9.38
2023-03-19T14:40:08.130Z,10.98
2023-03-19T14:42:56.529Z,9.68
2023-03-19T14:45:42.217Z,12.13
2023-03-19T14:48:31.119Z,15.00
2023-03-19T14:51:26.182Z,12.57
2023-03-19T14:54:05.538Z,14.17
2023-03-19T14:56:34.358Z,11.68
2023-03-19T14:59:06.090Z,20.70
2023-03-19T15:01:34.545Z,17.02
2023-03-19T15:04:08.071Z,11.73
2023-03-19T15:06:37.895Z,11.13
2023-03-19T15:09:22.301Z,13.02
2023-03-19T15:12:22.453Z,17.35
2023-03-19T15:15:09.747Z,11.70
2023-03-19T15:17:45.322Z,11.23
2023-03-19T15:20:21.855Z,20.60
2023-03-19T15:22:56.535Z,17.23
2023-03-19T15:25:24.203Z,11.63
2023-03-19T15:28:13.664Z,13.10
2023-03-19T15:33:40.558Z,16.85
2023-03-19T15:36:30.238Z,12.18
2023-03-19T15:39:03.468Z,21.20
2023-03-19T15:41:32.376Z,17.33
2023-03-19T15:44:01.050Z,21.88
2023-03-19T15:46:31.432Z,14.93
2023-03-19T15:49:09.025Z,13.93
2023-03-19T15:51:36.796Z,22.02
2023-03-19T15:54:03.996Z,15.65
2023-03-19T15:56:32.421Z,17.48
2023-03-19T15:59:00.238Z,16.83
2023-03-19T16:01:32.554Z,24.00
2023-03-19T16:04:01.809Z,11.20
2023-03-19T16:06:36.155Z,12.15
2023-03-19T16:09:28.191Z,12.45
2023-03-19T16:11:56.261Z,23.95
2023-03-19T16:14:30.886Z,13.18
2023-03-19T16:17:17.899Z,16.95
2023-03-19T16:19:56.060Z,12.45
2023-03-19T16:22:32.083Z,17.02
2023-03-19T16:24:59.752Z,20.17
2023-03-19T16:27:39.425Z,27.98
2023-03-19T16:30:25.360Z,19.35
2023-03-19T16:33:03.953Z,26.50
2023-03-19T16:35:34.921Z,13.25
2023-03-19T16:38:22.196Z,18.98
2023-03-19T16:40:50.760Z,20.77
2023-03-19T16:43:25.960Z,20.05
2023-03-19T16:46:06.156Z,26.95
2023-03-19T16:48:33.580Z,26.65
2023-03-19T16:51:00.962Z,21.25
2023-03-19T16:53:31.532Z,29.95
2023-03-19T16:55:59.322Z,25.85
2023-03-19T16:58:32.180Z,25.80
2023-03-19T17:00:59.753Z,30.45
2023-03-19T17:03:30.080Z,28.02
2023-03-19T17:05:57.637Z,24.37
2023-03-19T17:08:26.232Z,20.05
2023-03-19T17:10:54.910Z,27.38
2023-03-19T17:13:29.884Z,19.52
2023-03-19T17:16:06.742Z,16.48
2023-03-19T17:18:36.523Z,12.48
2023-03-19T17:21:15.991Z,21.42
2023-03-19T17:23:44.389Z,18.70
2023-03-19T17:26:19.088Z,19.13
2023-03-19T17:28:48.520Z,13.77
2023-03-19T17:31:31.840Z,13.80
2023-03-19T17:34:06.053Z,15.43
2023-03-19T17:36:33.569Z,11.73
2023-03-19T17:39:00.882Z,15.43
2023-03-19T17:41:35.737Z,26.08
2023-03-19T17:44:06.206Z,26.17
2023-03-19T17:46:38.792Z,37.55
2023-03-19T17:49:26.188Z,26.95
2023-03-19T17:51:53.470Z,30.23
2023-03-19T17:54:21.349Z,30.17
2023-03-19T17:56:48.984Z,22.85
2023-03-19T17:59:16.240Z,15.18
2023-03-19T18:01:43.748Z,21.25
2023-03-19T18:04:13.250Z,20.95
2023-03-19T18:06:42.839Z,16.80
2023-03-19T18:09:17.074Z,16.48
2023-03-19T18:11:44.424Z,24.65
2023-03-19T18:14:12.053Z,14.98
2023-03-19T18:16:46.418Z,19.27
2023-03-19T18:19:26.452Z,17.83
2023-03-19T18:21:56.314Z,28.83
2023-03-19T18:24:24.731Z,24.73
2023-03-19T18:26:53.108Z,26.23
2023-03-19T18:29:25.055Z,12.88
2023-03-19T18:31:53.478Z,18.55
2023-03-19T18:34:21.535Z,18.02
2023-03-19T18:36:49.955Z,18.05
2023-03-19T18:39:18.147Z,16.73
2023-03-19T18:41:46.219Z,19.52
2023-03-19T18:44:14.253Z,13.18
2023-03-19T18:46:42.365Z,14.70
2023-03-19T18:49:24.777Z,15.70
2023-03-19T18:52:08.969Z,17.52
2023-03-19T18:54:36.861Z,7.80
2023-03-19T18:57:05.836Z,15.40
2023-03-19T18:59:33.432Z,19.50
2023-03-19T19:02:16.737Z,14.90
2023-03-19T19:04:44.041Z,16.27
2023-03-19T19:07:15.061Z,13.57
2023-03-19T19:09:43.252Z,15.10
2023-03-19T19:12:15.247Z,28.38
2023-03-19T19:14:44.362Z,24.63
2023-03-19T19:17:20.133Z,19.45
2023-03-19T19:19:47.792Z,17.80
2023-03-19T19:22:18.587Z,11.50
2023-03-19T19:24:46.355Z,14.18
2023-03-19T19:27:24.911Z,18.88
2023-03-19T19:29:53.144Z,14.45
2023-03-19T19:32:24.769Z,10.35
2023-03-19T19:34:52.532Z,13.02
2023-03-19T19:37:23.286Z,13.38
2023-03-19T19:39:51.213Z,12.15
2023-03-19T19:42:19.803Z,17.23
2023-03-19T19:44:53.546Z,15.55
2023-03-19T19:47:21.189Z,19.25
2023-03-19T19:49:50.298Z,15.70
2023-03-19T19:52:18.898Z,15.60
2023-03-19T19:54:46.777Z,13.68
2023-03-19T19:57:18.539Z,15.68
2023-03-19T19:59:46.043Z,14.10
2023-03-19T20:02:23.589Z,16.38
2023-03-19T20:04:50.993Z,13.88
2023-03-19T20:07:18.337Z,17.20
2023-03-19T20:09:46.542Z,13.82
2023-03-19T20:12:28.277Z,19.27
2023-03-19T20:14:55.760Z,21.20
2023-03-19T20:17:24.100Z,10.40
2023-03-19T20:19:51.410Z,19.52
2023-03-19T20:22:18.657Z,13.98
2023-03-19T20:24:50.289Z,20.03
2023-03-19T20:27:23.693Z,28.50
2023-03-19T20:29:53.695Z,14.02
2023-03-19T20:32:31.490Z,23.67
2023-03-19T20:35:01.342Z,15.73
2023-03-19T20:37:31.120Z,21.58
2023-03-19T20:39:58.446Z,16.85
2023-03-19T20:42:25.741Z,21.52
2023-03-19T20:44:55.673Z,15.32
2023-03-19T20:47:26.005Z,17.60
2023-03-19T20:49:53.471Z,14.25
2023-03-19T20:52:21.877Z,15.07
2023-03-19T20:54:49.764Z,12.20
2023-03-19T20:57:19.890Z,9.13
2023-03-19T20:59:47.860Z,14.32
2023-03-19T21:02:16.805Z,12.02
2023-03-19T21:04:44.832Z,8.45
2023-03-19T21:07:27.451Z,9.90
2023-03-19T21:09:58.165Z,5.25
2023-03-19T21:12:29.293Z,17.83
2023-03-19T21:14:57.814Z,5.18
2023-03-19T21:17:27.341Z,7.65
2023-03-19T21:19:58.373Z,14.88
2023-03-19T21:22:27.361Z,5.75
2023-03-19T21:25:06.073Z,7.47
2023-03-19T21:27:34.419Z,7.80
2023-03-19T21:30:01.969Z,7.82
2023-03-19T21:32:29.450Z,11.32
2023-03-19T21:34:57.866Z,8.65
2023-03-19T21:37:25.477Z,6.28
2023-03-19T21:39:52.771Z,5.82
2023-03-19T21:42:23.401Z,12.27
2023-03-19T21:44:54.476Z,6.50
2023-03-19T21:47:22.956Z,5.80
2023-03-19T21:49:50.253Z,4.75
2023-03-19T21:52:19.370Z,6.75
2023-03-19T21:54:46.618Z,5.63
2023-03-19T21:57:14.242Z,6.43
2023-03-19T21:59:41.556Z,4.60
2023-03-19T22:02:38.871Z,8.55
2023-03-19T22:05:26.927Z,6.07
2023-03-19T22:07:54.276Z,6.00
2023-03-19T22:10:27.099Z,6.80
2023-03-19T22:12:54.866Z,8.25
2023-03-19T22:15:34.932Z,8.88
2023-03-19T22:18:05.895Z,10.18
2023-03-19T22:20:33.470Z,7.20
2023-03-19T22:23:01.049Z,7.35
2023-03-19T22:25:31.772Z,11.63
2023-03-19T22:27:59.302Z,7.80
2023-03-19T22:30:29.855Z,7.60
2023-03-19T22:32:57.295Z,8.40
2023-03-19T22:35:24.933Z,5.07
2023-03-19T22:37:53.147Z,9.25
2023-03-19T22:40:20.968Z,13.05
2023-03-19T22:42:49.821Z,11.75
2023-03-19T22:45:20.940Z,8.85
2023-03-19T22:47:50.329Z,10.43
2023-03-19T22:50:26.676Z,8.93
2023-03-19T22:52:54.470Z,9.02
2023-03-19T22:55:21.969Z,11.65
2023-03-19T22:57:49.509Z,11.18
2023-03-19T23:00:19.544Z,10.20
2023-03-19T23:02:47.946Z,13.55
2023-03-19T23:05:27.449Z,10.52
2023-03-19T23:07:55.398Z,7.75
2023-03-19T23:10:25.648Z,12.30
2023-03-19T23:12:59.138Z,11.45
2023-03-19T23:15:27.205Z,9.05
2023-03-19T23:17:57.907Z,9.10
2023-03-19T23:20:27.114Z,10.13
2023-03-19T23:22:54.689Z,12.10
2023-03-19T23:25:27.372Z,13.05
2023-03-19T23:28:00.672Z,11.88
2023-03-19T23:30:32.015Z,10.55
2023-03-19T23:33:04.854Z,10.98
2023-03-19T23:35:32.343Z,16.17
2023-03-19T23:37:59.869Z,12.38
2023-03-19T23:40:30.180Z,13.55
2023-03-19T23:42:58.110Z,14.80
2023-03-19T23:45:31.486Z,11.73
2023-03-19T23:47:59.983Z,16.13
2023-03-19T23:50:27.370Z,35.10
2023-03-19T23:52:55.207Z,12.27
2023-03-19T23:55:22.553Z,16.40
2023-03-19T23:57:50.673Z,14.25
